createdAt,value
2023-05-04T00:01:11.762Z,100043.81
2023-05-04T00:03:40.859Z,100032.81
2023-05-04T00:06:09.166Z,100033.69
2023-05-04T00:08:37.315Z,100040.88
2023-05-04T00:11:05.514Z,100033.06
2023-05-04T00:13:33.712Z,100033.25
2023-05-04T00:16:01.955Z,100046.16
2023-05-04T00:18:30.178Z,100038.84
2023-05-04T00:20:58.353Z,100038.56
2023-05-04T00:23:26.588Z,100039.41
2023-05-04T00:25:54.795Z,100034.13
2023-05-04T00:28:22.915Z,100041.22
2023-05-04T00:30:53.536Z,100045.19
2023-05-04T00:33:22.338Z,100036.06
2023-05-04T00:35:50.677Z,100034.13
2023-05-04T00:38:19.496Z,100031.75
2023-05-04T00:40:47.736Z,100033.47
2023-05-04T00:43:16.187Z,100034.53
2023-05-04T00:45:44.392Z,100025.09
2023-05-04T00:48:12.605Z,100038.19
2023-05-04T00:50:41.452Z,100030.47
2023-05-04T00:53:11.705Z,100035.28
2023-05-04T00:55:41.258Z,100029.34
2023-05-04T00:58:11.819Z,100035.19
2023-05-04T01:00:40.087Z,100031.84
2023-05-04T01:03:10.000Z,100031.25
2023-05-04T01:05:50.346Z,100029.56
2023-05-04T01:08:30.393Z,100029.22
2023-05-04T01:11:07.619Z,100039.13
2023-05-04T01:13:36.271Z,100031.53
2023-05-04T01:16:05.712Z,100030.28
2023-05-04T01:18:33.939Z,100027.72
2023-05-04T01:21:02.223Z,100026.94
2023-05-04T01:23:30.553Z,100033.59
2023-05-04T01:26:15.061Z,100033.75
2023-05-04T01:28:51.046Z,100029.13
2023-05-04T01:31:23.598Z,100035.28
2023-05-04T01:33:54.863Z,100025.41
2023-05-04T01:36:23.324Z,100032.84
2023-05-04T01:38:56.234Z,100023.16
2023-05-04T01:41:24.488Z,100017.94
2023-05-04T01:43:54.366Z,100018.78
2023-05-04T01:46:22.684Z,100016.09
2023-05-04T01:48:51.169Z,100019.72
2023-05-04T01:51:19.588Z,100015.47
2023-05-04T01:53:47.911Z,100011.09
2023-05-04T01:56:16.133Z,100018.06
2023-05-04T01:58:44.203Z,100003.75
2023-05-04T02:01:12.381Z,100008.56
2023-05-04T02:03:41.251Z,100016.63
2023-05-04T02:06:09.550Z,100010.28
2023-05-04T02:08:36.851Z,100005.72
2023-05-04T02:11:05.064Z,100004.47
2023-05-04T02:13:33.250Z,100010.78
2023-05-04T02:16:01.476Z,100003.69
2023-05-04T02:18:28.761Z,100005.34
2023-05-04T02:20:56.897Z,99999.63
2023-05-04T02:23:25.090Z,100003.19
2023-05-04T02:25:55.225Z,99997.59
2023-05-04T02:28:22.557Z,99998.13
2023-05-04T02:30:50.842Z,99996.34
2023-05-04T02:33:19.105Z,99997.78
2023-05-04T02:35:47.257Z,99994.84
2023-05-04T02:38:15.469Z,99993.47
2023-05-04T02:40:43.705Z,100000.72
2023-05-04T02:43:11.004Z,100003.63
2023-05-04T02:45:38.378Z,99999.28
2023-05-04T02:48:06.769Z,99995.81
2023-05-04T02:50:34.125Z,100003.03
2023-05-04T02:53:02.363Z,99996.28
2023-05-04T02:55:29.633Z,99994.19
2023-05-04T02:57:56.898Z,99998.25
2023-05-04T03:00:25.180Z,99993.72
2023-05-04T03:02:53.935Z,99998.03
2023-05-04T03:05:21.292Z,99998.22
2023-05-04T03:07:50.749Z,99992.06
2023-05-04T03:10:18.976Z,99997.44
2023-05-04T03:12:46.539Z,99991.84
2023-05-04T03:15:14.732Z,99994.47
2023-05-04T03:17:42.061Z,99996.22
2023-05-04T03:20:13.006Z,99992.22
2023-05-04T03:22:41.210Z,99994.91
2023-05-04T03:25:09.643Z,99993.69
2023-05-04T03:27:37.900Z,99996.06
2023-05-04T03:30:07.279Z,99997.84
2023-05-04T03:32:35.676Z,99983.25
2023-05-04T03:35:04.558Z,99991.72
2023-05-04T03:37:32.741Z,99993.53
2023-05-04T03:39:59.996Z,99992.56
2023-05-04T03:42:27.528Z,99994.03
2023-05-04T03:44:55.791Z,100001.84
2023-05-04T03:47:24.052Z,100004.59
2023-05-04T03:49:51.388Z,100003.47
2023-05-04T03:52:18.662Z,100008.75
2023-05-04T03:54:46.815Z,100010.94
2023-05-04T03:57:14.970Z,100015.59
2023-05-04T03:59:42.239Z,100016.63
2023-05-04T04:02:09.575Z,100021.03
2023-05-04T04:04:37.876Z,100023.94
2023-05-04T04:07:05.261Z,100031.47
2023-05-04T04:09:33.348Z,100031.41
2023-05-04T04:12:02.416Z,100033.19
2023-05-04T04:14:29.697Z,100039.50
2023-05-04T04:16:57.720Z,100032.56
2023-05-04T04:19:24.966Z,100041.59
2023-05-04T04:21:52.224Z,100040.00
2023-05-04T04:24:19.496Z,100039.91
2023-05-04T04:26:47.126Z,100044.94
2023-05-04T04:29:14.370Z,100039.47
2023-05-04T04:31:43.432Z,100038.53
2023-05-04T04:34:10.692Z,100040.75
2023-05-04T04:36:40.468Z,100049.06
2023-05-04T04:39:08.350Z,100050.06
2023-05-04T04:41:37.558Z,100053.53
2023-05-04T04:44:05.248Z,100050.59
2023-05-04T04:46:36.043Z,100068.06
2023-05-04T04:49:07.475Z,100070.44
2023-05-04T04:51:36.837Z,100067.50
2023-05-04T04:54:04.050Z,100065.03
2023-05-04T04:56:34.876Z,100067.28
2023-05-04T04:59:03.966Z,100064.94
2023-05-04T05:01:33.660Z,100068.66
2023-05-04T05:04:01.003Z,100074.47
2023-05-04T05:06:28.233Z,100085.03
2023-05-04T05:08:55.517Z,100084.47
2023-05-04T05:11:22.750Z,100076.16
2023-05-04T05:13:49.966Z,100078.41
2023-05-04T05:16:17.363Z,100086.88
2023-05-04T05:18:44.684Z,100084.50
2023-05-04T05:21:11.893Z,100096.78
2023-05-04T05:23:40.990Z,100100.28
2023-05-04T05:26:08.186Z,100098.78
2023-05-04T05:28:37.406Z,100089.84
2023-05-04T05:31:07.317Z,100096.38
2023-05-04T05:33:34.576Z,100102.28
2023-05-04T05:36:04.340Z,100095.72
2023-05-04T05:38:35.055Z,100104.75
2023-05-04T05:41:04.329Z,100101.03
2023-05-04T05:43:33.574Z,100098.31
2023-05-04T05:46:02.701Z,100102.03
2023-05-04T05:48:31.825Z,100103.53
2023-05-04T05:51:00.952Z,100094.91
2023-05-04T05:53:28.283Z,100098.38
2023-05-04T05:55:55.563Z,100105.00
2023-05-04T05:58:26.358Z,100106.41
2023-05-04T06:00:53.536Z,100107.72
2023-05-04T06:03:21.827Z,100098.66
2023-05-04T06:05:49.149Z,100106.88
2023-05-04T06:08:18.714Z,100095.66
2023-05-04T06:10:46.104Z,100100.84
2023-05-04T06:13:13.406Z,100102.78
2023-05-04T06:15:40.747Z,100099.59
2023-05-04T06:18:09.794Z,100095.16
2023-05-04T06:20:37.066Z,100091.63
2023-05-04T06:23:04.293Z,100087.72
2023-05-04T06:25:35.205Z,100092.91
2023-05-04T06:28:04.253Z,100092.16
2023-05-04T06:30:33.480Z,100100.56
2023-05-04T06:33:03.306Z,100096.25
2023-05-04T06:35:30.606Z,100098.22
2023-05-04T06:37:59.654Z,100101.59
2023-05-04T06:40:28.741Z,100113.34
2023-05-04T06:42:57.842Z,100115.78
2023-05-04T06:45:26.960Z,100123.00
2023-05-04T06:47:56.071Z,100118.34
2023-05-04T06:50:24.173Z,100120.63
2023-05-04T06:52:53.192Z,100126.78
2023-05-04T06:55:22.144Z,100125.91
2023-05-04T06:57:51.558Z,100121.63
2023-05-04T07:00:20.866Z,100126.09
2023-05-04T07:02:49.956Z,100130.16
2023-05-04T07:05:19.185Z,100138.25
2023-05-04T07:07:51.183Z,100131.16
2023-05-04T07:10:20.509Z,100128.81
2023-05-04T07:12:49.513Z,100134.59
2023-05-04T07:15:18.605Z,100142.13
2023-05-04T07:17:48.462Z,100134.50
2023-05-04T07:20:16.758Z,100138.91
2023-05-04T07:22:45.767Z,100133.22
2023-05-04T07:25:14.812Z,100133.97
2023-05-04T07:27:45.323Z,100134.66
2023-05-04T07:30:14.764Z,100140.97
2023-05-04T07:32:45.672Z,100139.63
2023-05-04T07:35:15.346Z,100142.34
2023-05-04T07:37:43.236Z,100136.63
2023-05-04T07:40:14.879Z,100137.44
2023-05-04T07:42:43.932Z,100141.81
2023-05-04T07:45:12.104Z,100137.66
2023-05-04T07:47:41.274Z,100138.97
2023-05-04T07:50:09.688Z,100140.44
2023-05-04T07:52:38.713Z,100133.13
2023-05-04T07:55:07.966Z,100137.84
2023-05-04T07:57:38.013Z,100135.81
2023-05-04T08:00:09.041Z,100128.19
2023-05-04T08:02:39.988Z,100129.91
2023-05-04T08:05:08.747Z,100130.47
2023-05-04T08:07:37.017Z,100136.47
2023-05-04T08:10:05.765Z,100138.72
2023-05-04T08:12:35.099Z,100134.03
2023-05-04T08:15:04.994Z,100129.75
2023-05-04T08:17:35.188Z,100134.28
2023-05-04T08:20:03.220Z,100121.91
2023-05-04T08:22:32.776Z,100130.38
2023-05-04T08:25:02.122Z,100135.84
2023-05-04T08:27:30.223Z,100136.47
2023-05-04T08:29:59.272Z,100141.25
2023-05-04T08:32:28.402Z,100142.72
2023-05-04T08:34:56.534Z,100139.03
2023-05-04T08:37:25.618Z,100135.13
2023-05-04T08:39:53.702Z,100141.59
2023-05-04T08:42:33.181Z,100134.97
2023-05-04T08:45:02.590Z,100146.69
2023-05-04T08:47:31.781Z,100141.94
2023-05-04T08:50:00.020Z,100141.22
2023-05-04T08:52:28.716Z,100145.75
2023-05-04T08:54:57.793Z,100143.94
2023-05-04T08:57:27.533Z,100144.88
2023-05-04T08:59:56.379Z,100135.22
2023-05-04T09:02:25.146Z,100143.75
2023-05-04T09:04:54.676Z,100138.91
2023-05-04T09:07:23.061Z,100128.69
2023-05-04T09:09:52.071Z,100130.75
2023-05-04T09:12:21.070Z,100135.47
2023-05-04T09:14:50.170Z,100139.66
2023-05-04T09:17:29.938Z,100134.06
2023-05-04T09:20:04.171Z,100135.66
2023-05-04T09:22:33.728Z,100129.09
2023-05-04T09:25:20.784Z,100133.28
2023-05-04T09:27:56.605Z,100131.84
2023-05-04T09:30:24.745Z,100128.34
2023-05-04T09:32:53.313Z,100131.97
2023-05-04T09:35:33.768Z,100130.66
2023-05-04T09:38:02.413Z,100124.19
2023-05-04T09:40:43.217Z,100124.00
2023-05-04T09:43:11.250Z,100124.03
2023-05-04T09:45:47.463Z,100119.97
2023-05-04T09:48:21.145Z,100116.69
2023-05-04T09:51:02.788Z,100115.81
2023-05-04T09:53:31.842Z,100117.66
2023-05-04T09:56:22.375Z,100096.84
2023-05-04T09:58:57.943Z,100101.06
2023-05-04T10:01:30.337Z,100096.19
2023-05-04T10:03:59.210Z,100098.66
2023-05-04T10:06:30.572Z,100089.81
2023-05-04T10:09:00.934Z,100100.38
2023-05-04T10:11:29.215Z,100091.47
2023-05-04T10:13:57.610Z,100090.69
2023-05-04T10:16:50.560Z,100081.88
2023-05-04T10:20:04.228Z,100090.50
2023-05-04T10:23:00.996Z,100083.31
2023-05-04T10:25:44.782Z,100079.53
2023-05-04T10:28:15.686Z,100080.00
2023-05-04T10:30:45.140Z,100070.22
2023-05-04T10:33:13.511Z,100077.09
2023-05-04T10:35:55.181Z,100070.81
2023-05-04T10:38:37.090Z,100063.75
2023-05-04T10:41:18.852Z,100065.78
2023-05-04T10:43:53.315Z,100071.53
2023-05-04T10:46:23.598Z,100061.63
2023-05-04T10:48:51.804Z,100065.25
2023-05-04T10:51:35.790Z,100058.41
2023-05-04T10:54:21.695Z,100064.38
2023-05-04T10:56:49.764Z,100052.28
2023-05-04T10:59:17.685Z,100049.63
2023-05-04T11:01:46.022Z,100056.34
2023-05-04T11:04:23.185Z,100049.25
2023-05-04T11:07:03.216Z,100042.38
2023-05-04T11:09:42.519Z,100048.69
2023-05-04T11:12:13.585Z,100046.50
2023-05-04T11:14:43.428Z,100047.13
2023-05-04T11:19:49.933Z,100042.88
2023-05-04T11:22:20.379Z,100040.50
2023-05-04T11:24:49.782Z,100038.81
2023-05-04T11:27:29.871Z,100038.97
2023-05-04T11:30:04.585Z,100034.84
2023-05-04T11:32:46.854Z,100026.22
2023-05-04T11:35:20.585Z,100034.03
2023-05-04T11:37:49.822Z,100023.69
2023-05-04T11:40:24.638Z,100013.75
2023-05-04T11:42:56.882Z,100029.63
2023-05-04T11:45:32.953Z,100020.31
2023-05-04T11:48:02.658Z,100018.47
2023-05-04T11:50:31.812Z,100012.28
2023-05-04T11:53:13.948Z,100015.59
2023-05-04T11:55:42.430Z,100017.13
2023-05-04T11:58:12.202Z,100019.19
2023-05-04T12:00:43.984Z,100009.72
2023-05-04T12:03:25.983Z,100006.47
2023-05-04T12:05:59.506Z,100001.69
2023-05-04T12:08:42.069Z,99997.22
2023-05-04T12:11:25.356Z,99994.81
2023-05-04T12:14:11.313Z,99995.34
2023-05-04T12:16:40.173Z,100000.31
2023-05-04T12:19:15.360Z,99995.41
2023-05-04T12:21:54.693Z,100004.72
2023-05-04T12:24:24.380Z,99991.69
2023-05-04T12:26:52.481Z,99996.28
2023-05-04T12:29:20.492Z,99997.34
2023-05-04T12:31:49.618Z,99997.28
2023-05-04T12:34:17.656Z,99989.44
2023-05-04T12:36:46.516Z,99995.00
2023-05-04T12:39:14.709Z,99990.34
2023-05-04T12:41:42.647Z,99983.22
2023-05-04T12:44:11.883Z,99989.19
2023-05-04T12:46:40.062Z,99983.81
2023-05-04T12:49:08.142Z,99981.16
2023-05-04T12:51:36.144Z,99985.22
2023-05-04T12:54:04.164Z,99981.31
2023-05-04T12:56:33.878Z,99976.84
2023-05-04T12:59:01.909Z,99979.44
2023-05-04T13:01:29.966Z,99971.25
2023-05-04T13:03:58.109Z,99968.19
2023-05-04T13:06:26.065Z,99964.28
2023-05-04T13:08:54.097Z,99966.94
2023-05-04T13:11:22.152Z,99959.16
2023-05-04T13:13:50.214Z,99961.56
2023-05-04T13:16:18.374Z,99956.88
2023-05-04T13:18:46.413Z,99958.28
2023-05-04T13:21:14.651Z,99959.34
2023-05-04T13:23:42.899Z,99955.28
2023-05-04T13:26:10.928Z,99948.69
2023-05-04T13:28:39.350Z,99957.16
2023-05-04T13:31:08.975Z,99942.03
2023-05-04T13:33:40.368Z,99949.00
2023-05-04T13:36:09.598Z,99945.72
2023-05-04T13:38:38.643Z,99937.47
2023-05-04T13:41:09.579Z,99933.47
2023-05-04T13:43:37.759Z,99931.41
2023-05-04T13:46:10.675Z,99934.63
2023-05-04T13:48:39.598Z,99922.88
2023-05-04T13:51:09.940Z,99925.84
2023-05-04T13:53:40.121Z,99927.66
2023-05-04T13:56:08.259Z,99921.22
2023-05-04T13:58:36.209Z,99920.63
2023-05-04T14:01:04.288Z,99915.94
2023-05-04T14:03:33.185Z,99909.53
2023-05-04T14:06:01.119Z,99910.75
2023-05-04T14:08:30.138Z,99908.59
2023-05-04T14:10:58.897Z,99910.69
2023-05-04T14:13:26.896Z,99901.78
2023-05-04T14:15:54.927Z,99908.78
2023-05-04T14:18:22.901Z,99897.19
2023-05-04T14:20:50.903Z,99910.69
2023-05-04T14:23:18.856Z,99910.84
2023-05-04T14:25:57.229Z,99904.94
2023-05-04T14:28:25.180Z,99901.09
2023-05-04T14:30:53.316Z,99902.13
2023-05-04T14:33:22.236Z,99894.66
2023-05-04T14:35:51.198Z,99893.09
2023-05-04T14:38:19.299Z,99891.66
2023-05-04T14:40:49.518Z,99900.06
2023-05-04T14:43:17.893Z,99901.31
2023-05-04T14:45:46.043Z,99896.72
2023-05-04T14:48:14.133Z,99890.31
2023-05-04T14:50:43.833Z,99893.38
2023-05-04T14:53:11.976Z,99890.41
2023-05-04T14:55:42.198Z,99889.03
2023-05-04T14:58:10.465Z,99891.00
2023-05-04T15:00:38.822Z,99881.41
2023-05-04T15:03:07.654Z,99886.72
2023-05-04T15:05:35.736Z,99887.38
2023-05-04T15:08:05.331Z,99884.88
2023-05-04T15:10:34.459Z,99885.56
2023-05-04T15:13:03.534Z,99884.16
2023-05-04T15:15:31.611Z,99883.59
2023-05-04T15:17:59.711Z,99881.81
2023-05-04T15:20:27.840Z,99889.88
2023-05-04T15:22:55.837Z,99882.72
2023-05-04T15:25:25.252Z,99892.13
2023-05-04T15:27:54.311Z,99893.34
2023-05-04T15:30:23.650Z,99886.97
2023-05-04T15:32:53.008Z,99879.75
2023-05-04T15:35:21.353Z,99882.53
2023-05-04T15:37:50.342Z,99885.13
2023-05-04T15:40:18.278Z,99891.16
2023-05-04T15:42:46.269Z,99886.25
2023-05-04T15:45:15.360Z,99883.34
2023-05-04T15:47:43.620Z,99882.44
2023-05-04T15:50:12.358Z,99884.56
2023-05-04T15:52:41.248Z,99879.56
2023-05-04T15:55:24.742Z,99875.19
2023-05-04T15:57:54.312Z,99873.19
2023-05-04T16:00:22.579Z,99873.44
2023-05-04T16:02:50.728Z,99873.00
2023-05-04T16:05:19.117Z,99871.34
2023-05-04T16:07:47.373Z,99879.88
2023-05-04T16:10:15.601Z,99865.91
2023-05-04T16:15:14.668Z,99865.53
2023-05-04T16:17:42.806Z,99862.44
2023-05-04T16:20:11.983Z,99868.19
2023-05-04T16:22:40.147Z,99870.13
2023-05-04T16:25:10.296Z,99862.56
2023-05-04T16:27:40.290Z,99864.59
2023-05-04T16:30:10.104Z,99865.53
2023-05-04T16:32:38.700Z,99864.28
2023-05-04T16:35:08.442Z,99866.88
2023-05-04T16:37:38.183Z,99872.91
2023-05-04T16:40:16.138Z,99869.88
2023-05-04T16:42:45.891Z,99871.09
2023-05-04T16:45:14.565Z,99878.19
2023-05-04T16:47:46.604Z,99877.88
2023-05-04T16:50:14.877Z,99877.19
2023-05-04T16:52:43.075Z,99877.53
2023-05-04T16:55:12.422Z,99877.09
2023-05-04T16:57:41.305Z,99880.50
2023-05-04T17:00:10.585Z,99887.00
2023-05-04T17:02:38.142Z,99885.28
2023-05-04T17:05:07.013Z,99878.63
2023-05-04T17:07:35.202Z,99882.53
2023-05-04T17:10:04.377Z,99882.66
2023-05-04T17:12:31.765Z,99878.38
2023-05-04T17:14:59.935Z,99891.56
2023-05-04T17:17:28.127Z,99893.31
2023-05-04T17:19:55.544Z,99889.88
2023-05-04T17:22:25.481Z,99892.03
2023-05-04T17:24:53.570Z,99889.03
2023-05-04T17:27:21.717Z,99890.28
2023-05-04T17:29:49.761Z,99896.03
2023-05-04T17:32:18.171Z,99890.25
2023-05-04T17:34:45.605Z,99898.88
2023-05-04T17:37:13.776Z,99908.06
2023-05-04T17:39:41.923Z,99905.03
2023-05-04T17:42:11.134Z,99913.81
2023-05-04T17:44:39.312Z,99918.69
2023-05-04T17:47:08.025Z,99915.34
2023-05-04T17:49:36.130Z,99921.28
2023-05-04T17:52:04.483Z,99925.19
2023-05-04T17:54:32.762Z,99930.81
2023-05-04T17:57:00.896Z,99930.66
2023-05-04T17:59:28.893Z,99931.06
2023-05-04T18:01:57.313Z,99935.91
2023-05-04T18:04:25.792Z,99943.88
2023-05-04T18:06:54.070Z,99945.16
2023-05-04T18:09:21.348Z,99944.78
2023-05-04T18:11:48.593Z,99949.47
2023-05-04T18:14:16.758Z,99953.91
2023-05-04T18:16:45.024Z,99950.00
2023-05-04T18:19:13.101Z,99957.16
2023-05-04T18:21:41.283Z,99966.44
2023-05-04T18:24:10.100Z,99964.38
2023-05-04T18:26:38.264Z,99968.69
2023-05-04T18:29:17.927Z,99973.16
2023-05-04T18:31:46.535Z,99981.81
2023-05-04T18:34:14.747Z,99981.84
2023-05-04T18:36:42.858Z,99983.72
2023-05-04T18:39:10.133Z,99991.97
2023-05-04T18:41:38.442Z,99987.84
2023-05-04T18:44:06.035Z,100008.16
2023-05-04T18:46:34.179Z,100004.06
2023-05-04T18:49:02.308Z,100010.06
2023-05-04T18:51:31.291Z,100007.88
2023-05-04T18:53:58.558Z,100015.59
2023-05-04T18:56:26.170Z,100016.09
2023-05-04T18:58:54.477Z,100020.44
2023-05-04T19:01:22.636Z,100026.53
2023-05-04T19:03:51.169Z,100026.38
2023-05-04T19:06:19.389Z,100024.50
2023-05-04T19:08:47.393Z,100024.50
2023-05-04T19:11:15.893Z,100031.81
2023-05-04T19:13:43.127Z,100033.25
2023-05-04T19:16:14.016Z,100035.97
2023-05-04T19:18:43.989Z,100039.75
2023-05-04T19:21:11.275Z,100045.91
2023-05-04T19:23:38.592Z,100055.13
2023-05-04T19:26:06.897Z,100054.56
2023-05-04T19:28:35.573Z,100050.84
2023-05-04T19:31:02.939Z,100058.81
2023-05-04T19:33:44.355Z,100058.69
2023-05-04T19:36:14.908Z,100064.81
2023-05-04T19:38:43.230Z,100070.50
2023-05-04T19:41:10.521Z,100071.81
2023-05-04T19:43:39.055Z,100071.91
2023-05-04T19:46:06.914Z,100082.41
2023-05-04T19:48:34.924Z,100072.09
2023-05-04T19:51:03.044Z,100075.91
2023-05-04T19:53:31.365Z,100073.63
2023-05-04T19:55:58.952Z,100085.38
2023-05-04T19:58:26.580Z,100087.59
2023-05-04T20:00:54.122Z,100094.66
2023-05-04T20:03:21.464Z,100092.72
2023-05-04T20:05:53.553Z,100100.59
2023-05-04T20:08:20.789Z,100098.13
2023-05-04T20:10:48.069Z,100098.34
2023-05-04T20:13:15.382Z,100105.00
2023-05-04T20:15:42.915Z,100100.69
2023-05-04T20:18:10.301Z,100103.13
2023-05-04T20:20:37.508Z,100103.63
2023-05-04T20:23:06.516Z,100105.25
2023-05-04T20:25:33.852Z,100107.44
2023-05-04T20:28:01.088Z,100108.88
2023-05-04T20:30:30.339Z,100114.75
2023-05-04T20:32:59.379Z,100104.31
2023-05-04T20:35:30.239Z,100110.50
2023-05-04T20:37:59.550Z,100107.97
2023-05-04T20:40:29.197Z,100100.94
2023-05-04T20:42:58.264Z,100101.97
2023-05-04T20:45:25.649Z,100095.81
2023-05-04T20:47:55.140Z,100103.56
2023-05-04T20:50:22.650Z,100110.47
2023-05-04T20:52:50.194Z,100103.81
2023-05-04T20:55:18.050Z,100106.16
2023-05-04T20:57:45.530Z,100105.03
2023-05-04T21:00:13.914Z,100102.19
2023-05-04T21:02:41.887Z,100104.78
2023-05-04T21:05:09.299Z,100112.47
2023-05-04T21:07:36.616Z,100104.06
2023-05-04T21:10:04.126Z,100105.66
2023-05-04T21:12:31.621Z,100101.34
2023-05-04T21:14:58.911Z,100097.53
2023-05-04T21:17:26.274Z,100101.22
2023-05-04T21:19:53.553Z,100095.81
2023-05-04T21:22:21.807Z,100103.09
2023-05-04T21:24:49.893Z,100098.13
2023-05-04T21:27:20.671Z,100099.72
2023-05-04T21:29:48.731Z,100104.38
2023-05-04T21:32:17.837Z,100107.00
2023-05-04T21:34:50.080Z,100104.00
2023-05-04T21:37:18.173Z,100102.88
2023-05-04T21:39:46.703Z,100096.53
2023-05-04T21:42:13.923Z,100103.34
2023-05-04T21:44:43.121Z,100094.91
2023-05-04T21:47:11.233Z,100088.38
2023-05-04T21:49:38.705Z,100089.06
2023-05-04T21:52:06.763Z,100084.91
2023-05-04T21:54:34.873Z,100089.56
2023-05-04T21:57:02.250Z,100087.28
2023-05-04T21:59:30.022Z,100085.44
2023-05-04T22:01:58.109Z,100095.66
2023-05-04T22:04:25.409Z,100091.41
2023-05-04T22:06:53.827Z,100084.53
2023-05-04T22:09:21.179Z,100098.38
2023-05-04T22:11:49.715Z,100090.47
2023-05-04T22:14:18.698Z,100092.63
2023-05-04T22:16:46.973Z,100100.28
2023-05-04T22:19:16.046Z,100101.31
2023-05-04T22:21:43.333Z,100098.63
2023-05-04T22:24:11.606Z,100091.25
2023-05-04T22:26:40.056Z,100088.38
2023-05-04T22:29:09.252Z,100092.22
2023-05-04T22:31:37.363Z,100097.31
2023-05-04T22:34:04.682Z,100091.97
2023-05-04T22:36:32.114Z,100098.47
2023-05-04T22:39:02.882Z,100088.94
2023-05-04T22:41:31.020Z,100086.06
2023-05-04T22:43:59.017Z,100084.91
2023-05-04T22:46:26.451Z,100082.69
2023-05-04T22:48:53.763Z,100090.50
2023-05-04T22:51:22.902Z,100091.81
2023-05-04T22:53:51.258Z,100086.44
2023-05-04T22:56:19.294Z,100092.00
2023-05-04T22:58:46.813Z,100093.28
2023-05-04T23:01:14.045Z,100091.06
2023-05-04T23:03:41.489Z,100088.38
2023-05-04T23:06:10.693Z,100089.34
2023-05-04T23:08:38.909Z,100093.34
2023-05-04T23:11:06.224Z,100094.25
2023-05-04T23:13:34.346Z,100089.69
2023-05-04T23:16:02.810Z,100088.16
2023-05-04T23:18:33.194Z,100089.69
2023-05-04T23:21:00.649Z,100084.75
2023-05-04T23:23:29.876Z,100082.84
2023-05-04T23:25:58.975Z,100074.28
2023-05-04T23:28:28.015Z,100070.22
2023-05-04T23:30:55.888Z,100073.75
2023-05-04T23:33:25.013Z,100066.06
2023-05-04T23:35:58.296Z,100065.97
2023-05-04T23:38:25.700Z,100067.06
2023-05-04T23:40:54.022Z,100056.56
2023-05-04T23:43:24.112Z,100067.44
2023-05-04T23:46:03.742Z,100055.53
2023-05-04T23:48:32.599Z,100049.72
2023-05-04T23:51:06.648Z,100057.63
2023-05-04T23:53:35.494Z,100056.63
2023-05-04T23:56:06.390Z,100057.19
2023-05-04T23:58:35.718Z,100056.50
